Aviation Digital Data Service (ADDS)

Output produced by METARs form (0103 UTC 20 April 2019)
found at http://www.aviationweather.gov/metar/data/
 
METAR text: RJOR 200000Z 12006KT 080V170 9999 FEW050 11/04 Q1017
Conditions at: RJOR (TOTTORI AIRPORT , JP) observed 0000 UTC 20 April 2019
Temperature: 11.0°C (52°F)
Dewpoint: 4.0°C (39°F) [RH = 62%]
Pressure (altimeter): 30.03 inches Hg (1017.0 mb)
Winds: from the ESE (120 degrees) at 7 MPH (6 knots; 3.1 m/s)
Visibility: 6 or more miles (10+ km)
Ceiling: at least 12,000 feet AGL
Clouds: few clouds at 5000 feet AGL
Weather: no significant weather observed at this time

METAR text: RJOR 192300Z 14005KT 9999 FEW030 09/05 Q1017
Conditions at: RJOR (TOTTORI AIRPORT , JP) observed 2300 UTC 19 April 2019
Temperature: 9.0°C (48°F)
Dewpoint: 5.0°C (41°F) [RH = 76%]
Pressure (altimeter): 30.03 inches Hg (1017.0 mb)
Winds: from the SE (140 degrees) at 6 MPH (5 knots; 2.6 m/s)
Visibility: 6 or more miles (10+ km)
Ceiling: at least 12,000 feet AGL
Clouds: few clouds at 3000 feet AGL
Weather: no significant weather observed at this time

METAR text: RJOR 192200Z 14008KT 9999 VCFG FEW002 07/05 Q1017
Conditions at: RJOR (TOTTORI AIRPORT , JP) observed 2200 UTC 19 April 2019
Temperature: 7.0°C (45°F)
Dewpoint: 5.0°C (41°F) [RH = 87%]
Pressure (altimeter): 30.03 inches Hg (1017.0 mb)
Winds: from the SE (140 degrees) at 9 MPH (8 knots; 4.1 m/s)
Visibility: 6 or more miles (10+ km)
Ceiling: at least 12,000 feet AGL
Clouds: few clouds at 200 feet AGL
Weather: VCFG  (fog in vicinity)

METAR text: RJOR 192130Z 13007KT 9999 FEW003 06/05 Q1017
Conditions at: RJOR (TOTTORI AIRPORT , JP) observed 2130 UTC 19 April 2019
Temperature: 6.0°C (43°F)
Dewpoint: 5.0°C (41°F) [RH = 93%]
Pressure (altimeter): 30.03 inches Hg (1017.0 mb)
Winds: from the SE (130 degrees) at 8 MPH (7 knots; 3.6 m/s)
Visibility: 6 or more miles (10+ km)
Ceiling: at least 12,000 feet AGL
Clouds: few clouds at 300 feet AGL
Weather: no significant weather observed at this time

METAR text: RJOR 192110Z 13006KT 9999 FEW003 06/05 Q1017 RMK 1ST003 A3005
Conditions at: RJOR (TOTTORI AIRPORT , JP) observed 2110 UTC 19 April 2019
Temperature: 6.0°C (43°F)
Dewpoint: 5.0°C (41°F) [RH = 93%]
Pressure (altimeter): 30.03 inches Hg (1017.0 mb)
Winds: from the SE (130 degrees) at 7 MPH (6 knots; 3.1 m/s)
Visibility: 6 or more miles (10+ km)
Ceiling: at least 12,000 feet AGL
Clouds: few clouds at 300 feet AGL
Weather: no significant weather observed at this time

METAR text: RJOR 191200Z 03005KT 9999 FEW020 SCT030 11/06 Q1017
Conditions at: RJOR (TOTTORI AIRPORT , JP) observed 1200 UTC 19 April 2019
Temperature: 11.0°C (52°F)
Dewpoint: 6.0°C (43°F) [RH = 71%]
Pressure (altimeter): 30.03 inches Hg (1017.0 mb)
Winds: from the NNE (30 degrees) at 6 MPH (5 knots; 2.6 m/s)
Visibility: 6 or more miles (10+ km)
Ceiling: at least 12,000 feet AGL
Clouds: few clouds at 2000 feet AGL
scattered clouds at 3000 feet AGL
Weather: no significant weather observed at this time

METAR text: RJOR 191100Z 03006KT 360V060 9999 FEW020 SCT030 BKN050 11/06 Q1017
Conditions at: RJOR (TOTTORI AIRPORT , JP) observed 1100 UTC 19 April 2019
Temperature: 11.0°C (52°F)
Dewpoint: 6.0°C (43°F) [RH = 71%]
Pressure (altimeter): 30.03 inches Hg (1017.0 mb)
Winds: from the NNE (30 degrees) at 7 MPH (6 knots; 3.1 m/s)
Visibility: 6 or more miles (10+ km)
Ceiling: 5000 feet AGL
Clouds: few clouds at 2000 feet AGL
scattered clouds at 3000 feet AGL
broken clouds at 5000 feet AGL
Weather: no significant weather observed at this time

METAR text: RJOR 191000Z 04006KT 020V080 9999 FEW020 SCT030 BKN040 11/06 Q1016
Conditions at: RJOR (TOTTORI AIRPORT , JP) observed 1000 UTC 19 April 2019
Temperature: 11.0°C (52°F)
Dewpoint: 6.0°C (43°F) [RH = 71%]
Pressure (altimeter): 30.00 inches Hg (1016.0 mb)
Winds: from the NE (40 degrees) at 7 MPH (6 knots; 3.1 m/s)
Visibility: 6 or more miles (10+ km)
Ceiling: 4000 feet AGL
Clouds: few clouds at 2000 feet AGL
scattered clouds at 3000 feet AGL
broken clouds at 4000 feet AGL
Weather: no significant weather observed at this time

METAR text: RJOR 190900Z 03006KT 9999 FEW015 SCT025 BKN040 12/07 Q1017
Conditions at: RJOR (TOTTORI AIRPORT , JP) observed 0900 UTC 19 April 2019
Temperature: 12.0°C (54°F)
Dewpoint: 7.0°C (45°F) [RH = 71%]
Pressure (altimeter): 30.03 inches Hg (1017.0 mb)
Winds: from the NNE (30 degrees) at 7 MPH (6 knots; 3.1 m/s)
Visibility: 6 or more miles (10+ km)
Ceiling: 4000 feet AGL
Clouds: few clouds at 1500 feet AGL
scattered clouds at 2500 feet AGL
broken clouds at 4000 feet AGL
Weather: no significant weather observed at this time

METAR text: RJOR 190800Z 01006KT 9999 FEW008 SCT020 BKN035 12/06 Q1017
Conditions at: RJOR (TOTTORI AIRPORT , JP) observed 0800 UTC 19 April 2019
Temperature: 12.0°C (54°F)
Dewpoint: 6.0°C (43°F) [RH = 67%]
Pressure (altimeter): 30.03 inches Hg (1017.0 mb)
Winds: from the N (10 degrees) at 7 MPH (6 knots; 3.1 m/s)
Visibility: 6 or more miles (10+ km)
Ceiling: 3500 feet AGL
Clouds: few clouds at 800 feet AGL
scattered clouds at 2000 feet AGL
broken clouds at 3500 feet AGL
Weather: no significant weather observed at this time

METAR text: RJOR 190700Z 02005KT 9999 FEW008 SCT020 BKN030 12/07 Q1017
Conditions at: RJOR (TOTTORI AIRPORT , JP) observed 0700 UTC 19 April 2019
Temperature: 12.0°C (54°F)
Dewpoint: 7.0°C (45°F) [RH = 71%]
Pressure (altimeter): 30.03 inches Hg (1017.0 mb)
Winds: from the NNE (20 degrees) at 6 MPH (5 knots; 2.6 m/s)
Visibility: 6 or more miles (10+ km)
Ceiling: 3000 feet AGL
Clouds: few clouds at 800 feet AGL
scattered clouds at 2000 feet AGL
broken clouds at 3000 feet AGL
Weather: no significant weather observed at this time

METAR text: RJOR 190600Z 36007KT 9999 FEW010 SCT020 BKN030 12/07 Q1017
Conditions at: RJOR (TOTTORI AIRPORT , JP) observed 0600 UTC 19 April 2019
Temperature: 12.0°C (54°F)
Dewpoint: 7.0°C (45°F) [RH = 71%]
Pressure (altimeter): 30.03 inches Hg (1017.0 mb)
Winds: from the N (360 degrees) at 8 MPH (7 knots; 3.6 m/s)
Visibility: 6 or more miles (10+ km)
Ceiling: 3000 feet AGL
Clouds: few clouds at 1000 feet AGL
scattered clouds at 2000 feet AGL
broken clouds at 3000 feet AGL
Weather: no significant weather observed at this time

METAR text: RJOR 190500Z 02009KT 9999 FEW010 SCT020 BKN030 12/08 Q1017
Conditions at: RJOR (TOTTORI AIRPORT , JP) observed 0500 UTC 19 April 2019
Temperature: 12.0°C (54°F)
Dewpoint: 8.0°C (46°F) [RH = 76%]
Pressure (altimeter): 30.03 inches Hg (1017.0 mb)
Winds: from the NNE (20 degrees) at 10 MPH (9 knots; 4.6 m/s)
Visibility: 6 or more miles (10+ km)
Ceiling: 3000 feet AGL
Clouds: few clouds at 1000 feet AGL
scattered clouds at 2000 feet AGL
broken clouds at 3000 feet AGL
Weather: no significant weather observed at this time

METAR text: RJOR 190400Z 02008KT 9999 FEW015 SCT020 BKN025 12/08 Q1017
Conditions at: RJOR (TOTTORI AIRPORT , JP) observed 0400 UTC 19 April 2019
Temperature: 12.0°C (54°F)
Dewpoint: 8.0°C (46°F) [RH = 76%]
Pressure (altimeter): 30.03 inches Hg (1017.0 mb)
Winds: from the NNE (20 degrees) at 9 MPH (8 knots; 4.1 m/s)
Visibility: 6 or more miles (10+ km)
Ceiling: 2500 feet AGL
Clouds: few clouds at 1500 feet AGL
scattered clouds at 2000 feet AGL
broken clouds at 2500 feet AGL
Weather: no significant weather observed at this time

METAR text: RJOR 190300Z 02008KT 9999 FEW010 SCT015 BKN020 12/08 Q1017
Conditions at: RJOR (TOTTORI AIRPORT , JP) observed 0300 UTC 19 April 2019
Temperature: 12.0°C (54°F)
Dewpoint: 8.0°C (46°F) [RH = 76%]
Pressure (altimeter): 30.03 inches Hg (1017.0 mb)
Winds: from the NNE (20 degrees) at 9 MPH (8 knots; 4.1 m/s)
Visibility: 6 or more miles (10+ km)
Ceiling: 2000 feet AGL
Clouds: few clouds at 1000 feet AGL
scattered clouds at 1500 feet AGL
broken clouds at 2000 feet AGL
Weather: no significant weather observed at this time

METAR text: RJOR 190200Z 04009KT 9999 -SHRA FEW010 SCT015 BKN020 12/09 Q1017
Conditions at: RJOR (TOTTORI AIRPORT , JP) observed 0200 UTC 19 April 2019
Temperature: 12.0°C (54°F)
Dewpoint: 9.0°C (48°F) [RH = 82%]
Pressure (altimeter): 30.03 inches Hg (1017.0 mb)
Winds: from the NE (40 degrees) at 10 MPH (9 knots; 4.6 m/s)
Visibility: 6 or more miles (10+ km)
Ceiling: 2000 feet AGL
Clouds: few clouds at 1000 feet AGL
scattered clouds at 1500 feet AGL
broken clouds at 2000 feet AGL
Weather: -SHRA  (light rain showers)

METAR text: RJOR 190100Z 03012KT 4000 -SHRA BR FEW005 SCT010 BKN015 11/10 Q1017
Conditions at: RJOR (TOTTORI AIRPORT , JP) observed 0100 UTC 19 April 2019
Temperature: 11.0°C (52°F)
Dewpoint: 10.0°C (50°F) [RH = 94%]
Pressure (altimeter): 30.03 inches Hg (1017.0 mb)
Winds: from the NNE (30 degrees) at 14 MPH (12 knots; 6.2 m/s)
Visibility: 2.49 miles (4.01 km)
Ceiling: 1500 feet AGL
Clouds: few clouds at 500 feet AGL
scattered clouds at 1000 feet AGL
broken clouds at 1500 feet AGL
Weather: -SHRA BR  (light rain showers, mist)

METAR text: RJOR 190021Z 03014KT 3000 -SHRA BR FEW006 SCT010 BKN015 12/11 Q1017 RMK 2ST006 3CU010 5CU015 A3004
Conditions at: RJOR (TOTTORI AIRPORT , JP) observed 0021 UTC 19 April 2019
Temperature: 12.0°C (54°F)
Dewpoint: 11.0°C (52°F) [RH = 94%]
Pressure (altimeter): 30.03 inches Hg (1017.0 mb)
Winds: from the NNE (30 degrees) at 16 MPH (14 knots; 7.2 m/s)
Visibility: 1.86 miles (2.99 km)
Ceiling: 1500 feet AGL
Clouds: few clouds at 600 feet AGL
scattered clouds at 1000 feet AGL
broken clouds at 1500 feet AGL
Weather: -SHRA BR  (light rain showers, mist)

METAR text: RJOR 190000Z 03015KT 3500 -SHRA BR FEW006 SCT010 BKN020 12/11 Q1016
Conditions at: RJOR (TOTTORI AIRPORT , JP) observed 0000 UTC 19 April 2019
Temperature: 12.0°C (54°F)
Dewpoint: 11.0°C (52°F) [RH = 94%]
Pressure (altimeter): 30.00 inches Hg (1016.0 mb)
Winds: from the NNE (30 degrees) at 17 MPH (15 knots; 7.7 m/s)
Visibility: 2.17 miles (3.49 km)
Ceiling: 2000 feet AGL
Clouds: few clouds at 600 feet AGL
scattered clouds at 1000 feet AGL
broken clouds at 2000 feet AGL
Weather: -SHRA BR  (light rain showers, mist)

METAR text: RJOR 182300Z 02018KT 3000 -SHRA BR FEW006 SCT010 BKN025 13/11 Q1015
Conditions at: RJOR (TOTTORI AIRPORT , JP) observed 2300 UTC 18 April 2019
Temperature: 13.0°C (55°F)
Dewpoint: 11.0°C (52°F) [RH = 88%]
Pressure (altimeter): 29.97 inches Hg (1015.0 mb)
Winds: from the NNE (20 degrees) at 21 MPH (18 knots; 9.3 m/s)
Visibility: 1.86 miles (2.99 km)
Ceiling: 2500 feet AGL
Clouds: few clouds at 600 feet AGL
scattered clouds at 1000 feet AGL
broken clouds at 2500 feet AGL
Weather: -SHRA BR  (light rain showers, mist)

METAR text: RJOR 182240Z 03017KT 4000 -SHRA BR FEW005 SCT010 BKN025 13/12 Q1015 RMK 1ST005 3CU010 5CU025 A2998
Conditions at: RJOR (TOTTORI AIRPORT , JP) observed 2240 UTC 18 April 2019
Temperature: 13.0°C (55°F)
Dewpoint: 12.0°C (54°F) [RH = 94%]
Pressure (altimeter): 29.97 inches Hg (1015.0 mb)
Winds: from the NNE (30 degrees) at 20 MPH (17 knots; 8.7 m/s)
Visibility: 2.49 miles (4.01 km)
Ceiling: 2500 feet AGL
Clouds: few clouds at 500 feet AGL
scattered clouds at 1000 feet AGL
broken clouds at 2500 feet AGL
Weather: -SHRA BR  (light rain showers, mist)

METAR text: RJOR 182227Z 03014KT 5000 -SHRA BR FEW005 SCT010 BKN025 14/13 Q1015 RMK 2ST005 3CU010 5CU025 A2998
Conditions at: RJOR (TOTTORI AIRPORT , JP) observed 2227 UTC 18 April 2019
Temperature: 14.0°C (57°F)
Dewpoint: 13.0°C (55°F) [RH = 94%]
Pressure (altimeter): 29.97 inches Hg (1015.0 mb)
Winds: from the NNE (30 degrees) at 16 MPH (14 knots; 7.2 m/s)
Visibility: 3 miles ( 5 km)
Ceiling: 2500 feet AGL
Clouds: few clouds at 500 feet AGL
scattered clouds at 1000 feet AGL
broken clouds at 2500 feet AGL
Weather: -SHRA BR  (light rain showers, mist)

METAR text: RJOR 182207Z 03013KT 3500 -SHRA BR FEW006 SCT010 BKN030 14/13 Q1015 RMK 2ST006 3CU010 5CU030 A2997
Conditions at: RJOR (TOTTORI AIRPORT , JP) observed 2207 UTC 18 April 2019
Temperature: 14.0°C (57°F)
Dewpoint: 13.0°C (55°F) [RH = 94%]
Pressure (altimeter): 29.97 inches Hg (1015.0 mb)
Winds: from the NNE (30 degrees) at 15 MPH (13 knots; 6.7 m/s)
Visibility: 2.17 miles (3.49 km)
Ceiling: 3000 feet AGL
Clouds: few clouds at 600 feet AGL
scattered clouds at 1000 feet AGL
broken clouds at 3000 feet AGL
Weather: -SHRA BR  (light rain showers, mist)

METAR text: RJOR 182200Z 02014KT 5000 -SHRA BR FEW006 SCT015 BKN030 14/13 Q1014
Conditions at: RJOR (TOTTORI AIRPORT , JP) observed 2200 UTC 18 April 2019
Temperature: 14.0°C (57°F)
Dewpoint: 13.0°C (55°F) [RH = 94%]
Pressure (altimeter): 29.94 inches Hg (1014.0 mb)
Winds: from the NNE (20 degrees) at 16 MPH (14 knots; 7.2 m/s)
Visibility: 3 miles ( 5 km)
Ceiling: 3000 feet AGL
Clouds: few clouds at 600 feet AGL
scattered clouds at 1500 feet AGL
broken clouds at 3000 feet AGL
Weather: -SHRA BR  (light rain showers, mist)

METAR text: RJOR 182130Z 36007KT 6000 -SHRA FEW010 SCT025 BKN030 15/14 Q1014
Conditions at: RJOR (TOTTORI AIRPORT , JP) observed 2130 UTC 18 April 2019
Temperature: 15.0°C (59°F)
Dewpoint: 14.0°C (57°F) [RH = 94%]
Pressure (altimeter): 29.94 inches Hg (1014.0 mb)
Winds: from the N (360 degrees) at 8 MPH (7 knots; 3.6 m/s)
Visibility: 4 miles ( 6 km)
Ceiling: 3000 feet AGL
Clouds: few clouds at 1000 feet AGL
scattered clouds at 2500 feet AGL
broken clouds at 3000 feet AGL
Weather: -SHRA  (light rain showers)

METAR text: RJOR 182110Z 33011KT 9999 -SHRA FEW010 SCT035 BKN045 15/13 Q1014 RMK 1CU010 3CU035 6SC045 A2995
Conditions at: RJOR (TOTTORI AIRPORT , JP) observed 2110 UTC 18 April 2019
Temperature: 15.0°C (59°F)
Dewpoint: 13.0°C (55°F) [RH = 88%]
Pressure (altimeter): 29.94 inches Hg (1014.0 mb)
Winds: from the NNW (330 degrees) at 13 MPH (11 knots; 5.7 m/s)
Visibility: 6 or more miles (10+ km)
Ceiling: 4500 feet AGL
Clouds: few clouds at 1000 feet AGL
scattered clouds at 3500 feet AGL
broken clouds at 4500 feet AGL
Weather: -SHRA  (light rain showers)